createdAt,value
2023-05-05T00:00:13.758Z,15.7606
2023-05-05T00:01:14.809Z,15.7022
2023-05-05T00:02:15.424Z,15.6965
2023-05-05T00:03:16.730Z,15.6490
2023-05-05T00:04:18.039Z,15.7343
2023-05-05T00:05:18.293Z,15.6336
2023-05-05T00:06:18.840Z,15.7593
2023-05-05T00:07:19.366Z,15.7402
2023-05-05T00:08:19.678Z,15.6897
2023-05-05T00:09:20.233Z,15.6795
2023-05-05T00:10:21.108Z,15.6792
2023-05-05T00:11:22.177Z,15.6355
2023-05-05T00:12:22.752Z,15.6053
2023-05-05T00:13:23.906Z,15.5418
2023-05-05T00:14:24.702Z,15.4685
2023-05-05T00:15:25.265Z,15.4096
2023-05-05T00:16:26.065Z,15.2455
2023-05-05T00:17:26.985Z,15.2406
2023-05-05T00:18:28.135Z,15.2195
2023-05-05T00:19:28.868Z,15.0614
2023-05-05T00:20:30.070Z,15.0901
2023-05-05T00:21:30.842Z,15.0665
2023-05-05T00:22:31.664Z,15.0177
2023-05-05T00:23:32.228Z,14.9930
2023-05-05T00:24:32.881Z,14.9254
2023-05-05T00:25:33.534Z,14.8200
2023-05-05T00:26:34.265Z,14.8494
2023-05-05T00:27:35.079Z,14.8265
2023-05-05T00:28:35.635Z,14.7583
2023-05-05T00:29:36.427Z,14.6744
2023-05-05T00:30:37.330Z,14.7402
2023-05-05T00:31:38.190Z,14.8081
2023-05-05T00:32:39.155Z,14.8299
2023-05-05T00:33:39.786Z,14.7576
2023-05-05T00:34:40.648Z,14.7510
2023-05-05T00:35:41.558Z,14.7865
2023-05-05T00:36:43.289Z,14.7685
2023-05-05T00:37:43.320Z,14.7834
2023-05-05T00:38:44.078Z,14.7808
2023-05-05T00:39:45.009Z,14.7894
2023-05-05T00:40:45.929Z,14.8780
2023-05-05T00:41:46.637Z,14.8898
2023-05-05T00:42:47.538Z,14.9273
2023-05-05T00:43:48.382Z,14.9394
2023-05-05T00:44:48.970Z,14.9102
2023-05-05T00:45:49.610Z,14.9367
2023-05-05T00:46:50.643Z,14.9218
2023-05-05T00:47:51.825Z,14.9126
2023-05-05T00:48:53.918Z,14.9152
2023-05-05T00:49:53.577Z,14.8634
2023-05-05T00:50:54.483Z,14.8378
2023-05-05T00:51:55.331Z,14.7577
2023-05-05T00:52:56.016Z,14.7446
2023-05-05T00:53:56.963Z,14.7265
2023-05-05T00:54:57.617Z,14.6855
2023-05-05T00:55:58.344Z,14.6324
2023-05-05T00:56:59.269Z,14.6300
2023-05-05T00:57:59.882Z,14.6361
2023-05-05T00:59:01.470Z,14.6320
2023-05-05T01:00:01.207Z,14.6446
2023-05-05T01:01:01.929Z,14.6010
2023-05-05T01:02:02.796Z,14.5692
2023-05-05T01:04:22.425Z,14.5141
2023-05-05T01:05:23.413Z,14.5040
2023-05-05T01:11:30.482Z,14.8972
2023-05-05T01:12:31.813Z,14.9963
2023-05-05T01:18:37.687Z,15.2311
2023-05-05T01:19:38.273Z,15.2527
2023-05-05T01:20:39.394Z,15.2886
2023-05-05T01:21:39.720Z,15.2746
2023-05-05T01:22:40.871Z,15.2357
2023-05-05T01:23:41.694Z,15.2153
2023-05-05T01:24:43.325Z,15.1401
2023-05-05T01:25:43.449Z,15.1078
2023-05-05T01:26:44.260Z,15.0867
2023-05-05T01:27:45.045Z,15.0235
2023-05-05T01:30:47.184Z,14.8228
2023-05-05T01:31:48.303Z,14.7272
2023-05-05T01:36:51.868Z,14.5167
2023-05-05T01:37:51.911Z,14.5013
2023-05-05T01:38:51.981Z,14.4073
2023-05-05T01:39:52.430Z,14.4021
2023-05-05T01:40:53.636Z,14.3205
2023-05-05T01:41:55.793Z,14.3154
2023-05-05T01:42:58.013Z,14.3036
2023-05-05T01:44:00.275Z,14.2589
2023-05-05T01:45:02.319Z,14.2026
2023-05-05T01:46:03.449Z,14.1634
2023-05-05T01:47:04.491Z,14.0978
2023-05-05T01:54:15.317Z,14.0513
2023-05-05T02:00:19.223Z,13.9888
2023-05-05T02:01:19.766Z,13.9080
2023-05-05T02:03:20.976Z,13.9176
2023-05-05T02:04:22.030Z,13.9077
2023-05-05T02:05:22.887Z,13.9180
2023-05-05T02:06:22.973Z,13.9680
2023-05-05T02:07:24.647Z,13.9735
2023-05-05T02:08:24.344Z,13.9996
2023-05-05T02:09:25.332Z,14.0399
2023-05-05T02:10:26.071Z,14.1032
2023-05-05T02:11:26.115Z,14.1040
2023-05-05T02:12:29.661Z,14.1786
2023-05-05T02:13:26.841Z,14.2905
2023-05-05T02:14:27.137Z,14.3011
2023-05-05T02:15:27.952Z,14.2959
2023-05-05T02:16:29.119Z,14.4270
2023-05-05T02:17:30.086Z,14.4145
2023-05-05T02:18:30.849Z,14.4448
2023-05-05T02:19:31.681Z,14.4186
2023-05-05T02:20:31.770Z,14.4554
2023-05-05T02:21:32.693Z,14.4768
2023-05-05T02:22:33.552Z,14.4937
2023-05-05T02:23:34.311Z,14.4625
2023-05-05T02:24:35.104Z,14.5196
2023-05-05T02:25:36.399Z,14.6897
2023-05-05T02:26:37.280Z,14.7584
2023-05-05T02:27:38.256Z,14.7913
2023-05-05T02:28:38.938Z,14.8058
2023-05-05T02:29:40.241Z,14.7875
2023-05-05T02:30:40.637Z,14.8027
2023-05-05T02:31:41.670Z,14.8007
2023-05-05T02:32:42.927Z,14.8024
2023-05-05T02:33:43.828Z,14.7966
2023-05-05T02:34:44.540Z,14.7669
2023-05-05T02:35:45.493Z,14.7783
2023-05-05T02:36:46.260Z,14.7594
2023-05-05T02:37:47.122Z,14.7051
2023-05-05T02:38:48.120Z,14.6837
2023-05-05T02:39:48.751Z,14.6223
2023-05-05T02:42:50.067Z,14.4785
2023-05-05T02:44:50.394Z,14.3300
2023-05-05T02:45:51.380Z,14.2811
2023-05-05T02:46:52.534Z,14.2452
2023-05-05T02:47:53.717Z,14.1992
2023-05-05T02:48:54.204Z,14.1817
2023-05-05T02:49:55.409Z,14.1403
2023-05-05T02:50:55.371Z,14.0854
2023-05-05T02:51:56.000Z,14.0567
2023-05-05T02:52:56.690Z,14.0800
2023-05-05T02:53:57.554Z,14.0381
2023-05-05T02:54:57.921Z,13.9736
2023-05-05T02:55:58.365Z,13.9425
2023-05-05T02:56:59.541Z,13.9795
2023-05-05T02:58:00.426Z,13.9609
2023-05-05T02:59:01.268Z,13.9880
2023-05-05T03:00:01.321Z,13.9697
2023-05-05T03:01:01.985Z,13.9813
2023-05-05T03:02:02.217Z,13.9999
2023-05-05T03:03:03.594Z,13.9898
2023-05-05T03:04:03.775Z,13.9764
2023-05-05T03:05:04.643Z,13.9778
2023-05-05T03:06:05.548Z,13.9470
2023-05-05T03:07:06.455Z,13.9140
2023-05-05T03:08:07.354Z,13.8927
2023-05-05T03:09:08.227Z,13.8837
2023-05-05T03:10:09.444Z,13.8462
2023-05-05T03:11:09.268Z,13.8743
2023-05-05T03:12:10.065Z,13.8645
2023-05-05T03:13:11.368Z,13.8433
2023-05-05T03:14:12.154Z,13.8323
2023-05-05T03:15:13.087Z,13.8204
2023-05-05T03:16:14.132Z,13.7788
2023-05-05T03:17:15.057Z,13.7905
2023-05-05T03:18:16.398Z,13.7831
2023-05-05T03:19:17.092Z,13.7668
2023-05-05T03:20:17.404Z,13.7758
2023-05-05T03:21:18.445Z,13.7784
2023-05-05T03:22:19.158Z,13.7958
2023-05-05T03:23:20.355Z,13.8256
2023-05-05T03:24:20.224Z,13.8158
2023-05-05T03:25:20.991Z,13.8256
2023-05-05T03:26:21.659Z,13.8443
2023-05-05T03:27:22.544Z,13.8989
2023-05-05T03:28:23.732Z,13.9051
2023-05-05T03:29:23.950Z,13.9191
2023-05-05T03:30:24.001Z,13.9137
2023-05-05T03:31:24.489Z,13.9186
2023-05-05T03:34:17.766Z,13.9202
2023-05-05T03:35:18.643Z,13.9048
2023-05-05T03:36:19.471Z,13.9279
2023-05-05T03:37:20.350Z,13.9484
2023-05-05T03:38:21.217Z,13.9485
2023-05-05T03:39:21.904Z,13.9657
2023-05-05T03:40:29.618Z,13.9815
2023-05-05T03:41:23.516Z,14.0084
2023-05-05T03:42:24.155Z,14.0123
2023-05-05T03:43:24.974Z,14.0107
2023-05-05T03:44:25.709Z,14.0143
2023-05-05T03:45:26.659Z,14.0022
2023-05-05T03:46:27.674Z,14.0184
2023-05-05T03:47:29.623Z,14.0076
2023-05-05T03:49:30.320Z,14.0233
2023-05-05T03:50:30.466Z,14.0027
2023-05-05T03:51:31.023Z,13.9925
2023-05-05T03:52:31.553Z,14.0117
2023-05-05T03:53:32.377Z,14.0139
2023-05-05T03:54:33.671Z,13.9839
2023-05-05T03:55:34.699Z,13.9761
2023-05-05T03:56:35.978Z,13.9458
2023-05-05T03:57:36.757Z,13.9288
2023-05-05T03:58:37.256Z,13.9149
2023-05-05T03:59:38.267Z,13.8834
2023-05-05T04:00:39.603Z,13.8699
2023-05-05T04:01:40.527Z,13.8019
2023-05-05T04:02:41.346Z,13.8365
2023-05-05T04:03:43.329Z,13.8161
2023-05-05T04:04:44.702Z,13.7859
2023-05-05T04:05:44.846Z,13.7653
2023-05-05T04:06:46.813Z,13.7416
2023-05-05T04:07:47.890Z,13.7328
2023-05-05T04:08:48.718Z,13.6693
2023-05-05T04:09:49.600Z,13.6833
2023-05-05T04:10:49.645Z,13.6570
2023-05-05T04:11:49.859Z,13.6238
2023-05-05T04:12:51.031Z,13.6172
2023-05-05T04:13:52.053Z,13.5642
2023-05-05T04:14:52.689Z,13.5280
2023-05-05T04:16:53.321Z,13.4980
2023-05-05T04:17:53.565Z,13.4893
2023-05-05T04:18:54.538Z,13.4626
2023-05-05T04:19:55.374Z,13.3651
2023-05-05T04:20:55.408Z,13.3046
2023-05-05T04:21:55.901Z,13.3849
2023-05-05T04:22:58.248Z,13.3976
2023-05-05T04:23:59.144Z,13.3342
2023-05-05T04:25:00.301Z,13.2514
2023-05-05T04:26:01.135Z,13.3113
2023-05-05T04:27:02.055Z,13.2451
2023-05-05T04:29:02.815Z,13.2543
2023-05-05T04:30:03.854Z,13.2864
2023-05-05T04:32:04.459Z,13.2646
2023-05-05T04:33:04.612Z,13.2541
2023-05-05T04:34:05.408Z,13.2509
2023-05-05T04:35:06.431Z,13.2307
2023-05-05T04:36:07.472Z,13.3706
2023-05-05T04:37:08.304Z,13.2628
2023-05-05T04:38:09.365Z,13.3521
2023-05-05T04:39:10.522Z,13.3963
2023-05-05T04:40:11.352Z,13.3872
2023-05-05T04:41:12.338Z,13.4696
2023-05-05T04:42:12.533Z,13.4692
2023-05-05T04:43:13.500Z,13.5070
2023-05-05T04:44:14.533Z,13.5802
2023-05-05T04:45:15.295Z,13.5750
2023-05-05T04:46:16.326Z,13.5721
2023-05-05T04:47:16.302Z,13.5802
2023-05-05T04:48:16.343Z,13.5723
2023-05-05T04:49:17.514Z,13.5645
2023-05-05T04:50:17.501Z,13.5166
2023-05-05T04:51:18.456Z,13.4565
2023-05-05T04:52:19.329Z,13.4081
2023-05-05T04:53:20.187Z,13.3864
2023-05-05T04:54:21.201Z,13.4013
2023-05-05T04:55:22.003Z,13.4468
2023-05-05T04:56:22.979Z,13.3976
2023-05-05T04:57:24.016Z,13.4106
2023-05-05T04:58:24.893Z,13.4040
2023-05-05T04:59:25.887Z,13.3669
2023-05-05T05:00:26.668Z,13.3022
2023-05-05T05:01:27.860Z,13.3489
2023-05-05T05:02:28.286Z,13.3517
2023-05-05T05:03:28.489Z,13.3844
2023-05-05T05:04:28.811Z,13.4066
2023-05-05T05:05:29.789Z,13.2614
2023-05-05T05:06:30.777Z,13.2989
2023-05-05T05:07:30.818Z,13.2830
2023-05-05T05:08:31.680Z,13.4063
2023-05-05T05:09:32.633Z,13.3607
2023-05-05T05:10:33.600Z,13.3312
2023-05-05T05:11:34.967Z,13.2927
2023-05-05T05:12:35.115Z,13.3446
2023-05-05T05:13:35.407Z,13.3671
2023-05-05T05:14:36.423Z,13.3362
2023-05-05T05:15:36.812Z,13.3505
2023-05-05T05:16:37.094Z,13.3813
2023-05-05T05:17:38.197Z,13.3637
2023-05-05T05:18:39.662Z,13.3152
2023-05-05T05:19:40.079Z,13.3057
2023-05-05T05:20:40.756Z,13.2892
2023-05-05T05:21:40.891Z,13.3334
2023-05-05T05:22:41.519Z,13.3024
2023-05-05T05:23:42.080Z,13.3596
2023-05-05T05:24:43.231Z,13.3709
2023-05-05T05:25:43.315Z,13.3889
2023-05-05T05:26:44.607Z,13.4328
2023-05-05T05:27:50.172Z,13.4361
2023-05-05T05:28:45.870Z,13.4821
2023-05-05T05:29:46.748Z,13.4937
2023-05-05T05:30:47.486Z,13.5188
2023-05-05T05:31:47.478Z,13.5075
2023-05-05T05:32:49.102Z,13.5565
2023-05-05T05:33:49.085Z,13.5696
2023-05-05T05:34:49.925Z,13.6053
2023-05-05T05:35:50.065Z,13.6378
2023-05-05T05:36:51.069Z,13.6480
2023-05-05T05:37:51.107Z,13.6783
2023-05-05T05:38:52.396Z,13.7047
2023-05-05T05:39:53.443Z,13.7104
2023-05-05T05:40:53.976Z,13.7297
2023-05-05T05:41:54.886Z,13.7339
2023-05-05T05:42:56.265Z,13.7573
2023-05-05T05:43:57.318Z,13.7600
2023-05-05T05:44:58.147Z,13.7821
2023-05-05T05:45:58.317Z,13.8190
2023-05-05T05:46:58.909Z,13.8460
2023-05-05T05:48:00.045Z,13.8794
2023-05-05T05:49:00.019Z,13.9106
2023-05-05T05:50:01.229Z,13.9536
2023-05-05T05:51:02.448Z,13.9572
2023-05-05T05:52:02.290Z,13.9488
2023-05-05T05:53:02.952Z,13.9521
2023-05-05T05:54:04.159Z,14.0348
2023-05-05T05:55:05.090Z,14.1494
2023-05-05T05:56:06.301Z,14.2264
2023-05-05T05:57:07.597Z,14.2796
2023-05-05T05:58:08.484Z,14.3377
2023-05-05T05:59:09.537Z,14.3841
2023-05-05T06:00:11.662Z,14.4044
2023-05-05T06:01:12.505Z,14.4609
2023-05-05T06:02:13.885Z,14.5162
2023-05-05T06:03:14.876Z,14.5858
2023-05-05T06:04:15.955Z,14.6565
2023-05-05T06:05:15.887Z,14.6791
2023-05-05T06:06:16.762Z,14.7185
2023-05-05T06:07:17.740Z,14.7391
2023-05-05T06:08:19.070Z,14.7376
2023-05-05T06:09:19.936Z,14.7583
2023-05-05T06:10:28.047Z,14.7795
2023-05-05T06:11:24.873Z,14.8172
2023-05-05T06:12:25.703Z,14.8183
2023-05-05T06:13:25.867Z,14.8366
2023-05-05T06:14:26.516Z,14.8675
2023-05-05T06:15:27.650Z,14.8970
2023-05-05T06:16:29.020Z,14.8728
2023-05-05T06:17:30.046Z,14.9301
2023-05-05T06:18:30.854Z,14.9754
2023-05-05T06:19:31.693Z,15.0167
2023-05-05T06:20:32.681Z,15.0581
2023-05-05T06:21:33.701Z,15.1122
2023-05-05T06:22:34.645Z,15.1522
2023-05-05T06:23:35.629Z,15.1925
2023-05-05T06:24:36.636Z,15.2047
2023-05-05T06:25:37.544Z,15.2672
2023-05-05T06:26:38.547Z,15.3587
2023-05-05T06:27:39.493Z,15.4196
2023-05-05T06:28:40.669Z,15.4399
2023-05-05T06:29:41.798Z,15.4866
2023-05-05T06:30:43.049Z,15.5696
2023-05-05T06:31:44.327Z,15.6210
2023-05-05T06:32:45.480Z,15.6651
2023-05-05T06:33:46.525Z,15.7297
2023-05-05T06:34:46.632Z,15.7721
2023-05-05T06:35:47.824Z,15.7990
2023-05-05T06:36:48.214Z,15.8037
2023-05-05T06:37:50.259Z,15.8245
2023-05-05T06:40:50.534Z,15.8633
2023-05-05T06:41:51.882Z,15.8904
2023-05-05T06:42:53.050Z,15.9290
2023-05-05T06:43:54.549Z,15.9771
2023-05-05T06:44:55.003Z,16.0225
2023-05-05T06:45:56.191Z,16.0468
2023-05-05T06:46:56.219Z,16.0925
2023-05-05T06:47:57.643Z,16.1507
2023-05-05T06:48:57.597Z,16.2002
2023-05-05T06:49:58.717Z,16.2143
2023-05-05T06:50:59.417Z,16.2488
2023-05-05T06:52:00.097Z,16.3973
2023-05-05T06:53:01.109Z,16.4479
2023-05-05T06:54:02.331Z,16.5195
2023-05-05T06:55:02.984Z,16.6022
2023-05-05T06:56:04.124Z,16.5385
2023-05-05T06:57:04.269Z,16.5728
2023-05-05T06:58:05.230Z,16.6142
2023-05-05T06:59:06.426Z,16.6991
2023-05-05T07:00:07.832Z,16.7131
2023-05-05T07:01:08.111Z,16.7123
2023-05-05T07:02:08.184Z,16.6488
2023-05-05T07:03:08.302Z,16.5875
2023-05-05T07:04:08.549Z,16.5315
2023-05-05T07:05:09.648Z,16.4883
2023-05-05T07:06:10.747Z,16.4508
2023-05-05T07:07:12.012Z,16.4188
2023-05-05T07:08:13.085Z,16.4669
2023-05-05T07:09:15.755Z,16.5275
2023-05-05T07:10:15.653Z,16.4666
2023-05-05T07:11:16.422Z,16.4903
2023-05-05T07:12:17.622Z,16.4949
2023-05-05T07:13:19.001Z,16.5223
2023-05-05T07:14:19.041Z,16.5328
2023-05-05T07:15:29.096Z,16.5296
2023-05-05T07:16:24.623Z,16.5562
2023-05-05T07:17:25.864Z,16.5848
2023-05-05T07:18:25.872Z,16.6441
2023-05-05T07:19:26.770Z,16.6491
2023-05-05T07:20:27.922Z,16.7004
2023-05-05T07:21:28.928Z,16.7501
2023-05-05T07:22:30.116Z,16.8151
2023-05-05T07:23:31.265Z,16.8490
2023-05-05T07:24:32.261Z,16.8729
2023-05-05T07:25:33.399Z,16.9311
2023-05-05T07:26:34.711Z,16.9925
2023-05-05T07:27:35.811Z,16.9474
2023-05-05T07:28:36.930Z,16.9775
2023-05-05T07:29:37.833Z,17.0053
2023-05-05T07:30:38.260Z,17.0485
2023-05-05T07:31:39.547Z,17.0742
2023-05-05T07:32:39.614Z,17.0745
2023-05-05T07:33:40.761Z,17.0847
2023-05-05T07:34:41.626Z,17.1174
2023-05-05T07:35:42.597Z,17.1241
2023-05-05T07:36:43.756Z,17.1268
2023-05-05T07:37:44.718Z,17.1195
2023-05-05T07:38:44.965Z,17.0951
2023-05-05T07:39:45.939Z,17.0935
2023-05-05T07:40:46.649Z,17.0682
2023-05-05T07:41:47.811Z,17.1148
2023-05-05T07:42:48.826Z,17.1648
2023-05-05T07:43:49.951Z,17.1873
2023-05-05T07:44:50.957Z,17.2490
2023-05-05T07:45:52.133Z,17.2975
2023-05-05T07:46:52.137Z,17.2696
2023-05-05T07:47:53.249Z,17.2638
2023-05-05T07:49:54.211Z,17.2845
2023-05-05T07:50:54.619Z,17.3057
2023-05-05T07:51:55.873Z,17.2918
2023-05-05T07:53:02.525Z,17.2716
2023-05-05T07:53:56.873Z,17.2537
2023-05-05T07:54:57.074Z,17.3140
2023-05-05T07:55:58.079Z,17.3648
2023-05-05T07:56:59.023Z,17.3319
2023-05-05T07:58:00.200Z,17.2923
2023-05-05T07:59:01.299Z,17.2810
2023-05-05T08:00:02.151Z,17.2941
2023-05-05T08:01:02.226Z,17.2920
2023-05-05T08:02:03.138Z,17.2883
2023-05-05T08:03:03.878Z,17.3391
2023-05-05T08:04:04.938Z,17.3662
2023-05-05T08:05:05.060Z,17.3973
2023-05-05T08:06:04.990Z,17.3973
2023-05-05T08:07:06.102Z,17.4288
2023-05-05T08:08:06.706Z,17.4729
2023-05-05T08:09:07.624Z,17.5462
2023-05-05T08:10:08.916Z,17.6255
2023-05-05T08:11:10.037Z,17.6425
2023-05-05T08:12:10.763Z,17.5746
2023-05-05T08:13:11.071Z,17.5551
2023-05-05T08:14:12.289Z,17.5747
2023-05-05T08:15:12.588Z,17.6283
2023-05-05T08:16:12.708Z,17.7047
2023-05-05T08:17:13.845Z,17.6855
2023-05-05T08:18:14.017Z,17.6707
2023-05-05T08:19:27.566Z,17.6677
2023-05-05T08:20:14.638Z,17.6393
2023-05-05T08:21:14.744Z,17.6459
2023-05-05T08:22:15.881Z,17.6492
2023-05-05T08:23:16.010Z,17.6410
2023-05-05T08:24:17.403Z,17.6327
2023-05-05T08:25:18.667Z,17.6759
2023-05-05T08:26:18.845Z,17.7021
2023-05-05T08:27:19.812Z,17.7279
2023-05-05T08:28:19.895Z,17.7556
2023-05-05T08:29:20.913Z,17.7724
2023-05-05T08:30:20.963Z,17.9200
2023-05-05T08:31:22.211Z,18.0112
2023-05-05T08:34:23.877Z,17.9865
2023-05-05T08:35:24.301Z,18.0500
2023-05-05T08:36:25.543Z,18.1548
2023-05-05T08:37:26.558Z,18.2204
2023-05-05T08:38:27.720Z,18.2251
2023-05-05T08:39:27.998Z,18.2057
2023-05-05T08:40:28.584Z,18.2165
2023-05-05T08:41:29.640Z,18.2787
2023-05-05T08:42:36.937Z,18.3064
2023-05-05T08:43:31.931Z,18.4079
2023-05-05T08:44:33.150Z,18.4615
2023-05-05T08:45:34.059Z,18.5146
2023-05-05T08:46:35.265Z,18.6004
2023-05-05T08:47:35.496Z,18.6393
2023-05-05T08:48:35.734Z,18.7069
2023-05-05T08:50:36.732Z,18.7628
2023-05-05T08:51:37.503Z,18.8074
2023-05-05T08:52:39.080Z,18.8460
2023-05-05T08:53:40.164Z,18.8140
2023-05-05T08:54:40.221Z,18.8037
2023-05-05T08:55:40.695Z,18.8519
2023-05-05T08:56:41.984Z,18.9110
2023-05-05T08:57:43.406Z,18.8639
2023-05-05T08:58:44.386Z,18.9450
2023-05-05T08:59:44.453Z,18.9417
2023-05-05T09:00:45.735Z,18.9338
2023-05-05T09:01:45.990Z,18.9814
2023-05-05T09:02:46.242Z,18.8990
2023-05-05T09:03:47.266Z,18.8329
2023-05-05T09:04:48.556Z,18.9076
2023-05-05T09:05:49.049Z,18.7699
2023-05-05T09:06:49.131Z,18.8410
2023-05-05T09:07:50.384Z,18.8211
2023-05-05T09:08:51.676Z,18.8670
2023-05-05T09:09:51.693Z,18.8681
2023-05-05T09:10:51.997Z,18.8290
2023-05-05T09:11:53.162Z,18.9428
2023-05-05T09:12:53.251Z,18.9396
2023-05-05T09:13:53.462Z,18.9685
2023-05-05T09:14:53.402Z,18.9718
2023-05-05T09:15:53.538Z,19.0435
2023-05-05T09:16:53.547Z,19.0683
2023-05-05T09:17:53.767Z,19.0086
2023-05-05T09:18:54.982Z,19.0456
2023-05-05T09:19:55.046Z,19.1397
2023-05-05T09:20:58.143Z,19.0693
2023-05-05T09:21:56.743Z,19.0288
2023-05-05T09:22:57.976Z,19.0748
2023-05-05T09:24:04.897Z,19.0172
2023-05-05T09:24:59.700Z,19.0341
2023-05-05T09:25:59.917Z,19.0900
2023-05-05T09:27:01.356Z,19.1920
2023-05-05T09:28:01.327Z,19.1575
2023-05-05T09:29:01.418Z,19.2600
2023-05-05T09:30:02.653Z,19.2443
2023-05-05T09:31:02.736Z,19.3063
2023-05-05T09:32:02.828Z,19.3283
2023-05-05T09:33:03.559Z,19.3170
2023-05-05T09:34:04.720Z,19.3667
2023-05-05T09:35:04.730Z,19.4376
2023-05-05T09:36:04.877Z,19.5318
2023-05-05T09:37:06.370Z,19.5581
2023-05-05T09:38:07.017Z,19.5306
2023-05-05T09:39:07.280Z,19.5367
2023-05-05T09:40:07.389Z,19.6100
2023-05-05T09:41:08.637Z,19.5873
2023-05-05T09:42:09.910Z,19.5818
2023-05-05T09:43:10.073Z,19.5467
2023-05-05T09:44:10.164Z,19.5219
2023-05-05T09:45:11.342Z,19.5984
2023-05-05T09:46:11.545Z,19.6789
2023-05-05T09:47:28.989Z,19.7055
2023-05-05T09:48:17.325Z,19.7101
2023-05-05T09:49:17.453Z,19.8267
2023-05-05T09:50:17.757Z,19.9852
2023-05-05T09:51:17.843Z,20.0146
2023-05-05T09:52:17.863Z,20.1486
2023-05-05T09:53:18.177Z,20.1654
2023-05-05T09:54:18.278Z,20.1842
2023-05-05T09:55:18.650Z,20.1630
2023-05-05T09:56:19.119Z,20.1574
2023-05-05T09:57:20.404Z,20.2450
2023-05-05T09:58:20.703Z,20.2884
2023-05-05T09:59:20.629Z,20.3264
2023-05-05T10:00:21.293Z,20.3876
2023-05-05T10:01:21.266Z,20.3744
2023-05-05T10:02:21.598Z,20.4163
2023-05-05T10:03:21.722Z,20.5418
2023-05-05T10:04:21.879Z,20.5131
2023-05-05T10:05:22.110Z,20.6508
2023-05-05T10:06:22.396Z,20.7121
2023-05-05T10:07:23.685Z,20.6917
2023-05-05T10:08:23.712Z,20.6139
2023-05-05T10:09:25.323Z,20.6271
2023-05-05T10:10:26.920Z,20.6619
2023-05-05T10:11:25.865Z,20.8028
2023-05-05T10:12:27.021Z,20.6402
2023-05-05T10:13:27.361Z,20.7139
2023-05-05T10:14:28.612Z,20.7830
2023-05-05T10:15:28.899Z,20.8500
2023-05-05T10:16:29.712Z,20.9757
2023-05-05T10:17:30.282Z,20.8113
2023-05-05T10:18:30.947Z,20.8356
2023-05-05T10:19:30.873Z,20.7740
2023-05-05T10:20:31.087Z,20.7841
2023-05-05T10:21:31.140Z,20.7759
2023-05-05T10:22:31.325Z,20.7101
2023-05-05T10:23:31.464Z,20.6133
2023-05-05T10:24:31.746Z,20.6103
2023-05-05T10:27:33.220Z,20.9169
2023-05-05T10:28:33.347Z,20.9369
2023-05-05T10:29:34.827Z,21.0160
2023-05-05T10:30:35.417Z,21.2554
2023-05-05T10:31:35.551Z,21.3525
2023-05-05T10:33:42.679Z,21.2063
2023-05-05T10:34:43.809Z,21.3296
2023-05-05T10:35:45.028Z,21.2792
2023-05-05T10:36:45.333Z,21.1856
2023-05-05T10:37:45.242Z,21.2353
2023-05-05T10:38:45.304Z,21.3696
2023-05-05T10:39:46.760Z,21.4290
2023-05-05T10:40:47.625Z,21.3662
2023-05-05T10:41:48.004Z,21.3008
2023-05-05T10:42:48.004Z,21.3293
2023-05-05T10:43:48.171Z,21.2679
2023-05-05T10:44:48.286Z,21.2378
2023-05-05T10:45:49.115Z,21.2507
2023-05-05T10:46:49.663Z,21.2061
2023-05-05T10:47:50.118Z,21.0022
2023-05-05T10:48:50.744Z,21.0040
2023-05-05T10:49:50.689Z,20.7730
2023-05-05T10:50:50.823Z,21.0235
2023-05-05T10:51:51.407Z,20.9762
2023-05-05T10:52:51.683Z,21.0165
2023-05-05T10:53:52.978Z,21.0696
2023-05-05T10:54:53.418Z,21.1447
2023-05-05T10:55:53.386Z,21.2492
2023-05-05T10:56:53.820Z,21.2801
2023-05-05T10:57:53.831Z,21.3197
2023-05-05T10:59:00.141Z,21.3599
2023-05-05T10:59:55.230Z,21.2231
2023-05-05T11:00:55.503Z,21.2412
2023-05-05T11:01:56.291Z,21.2532
2023-05-05T11:02:57.236Z,21.5499
2023-05-05T11:03:57.949Z,21.6448
2023-05-05T11:04:58.233Z,21.6711
2023-05-05T11:05:58.380Z,21.6251
2023-05-05T11:06:59.649Z,21.6747
2023-05-05T11:08:00.709Z,21.8214
2023-05-05T11:09:00.821Z,21.8125
2023-05-05T11:10:01.002Z,21.7774
2023-05-05T11:11:01.860Z,21.8380
2023-05-05T11:12:02.315Z,21.9911
2023-05-05T11:13:02.750Z,21.9737
2023-05-05T11:14:03.757Z,22.0014
2023-05-05T11:15:03.919Z,22.0651
2023-05-05T11:16:04.097Z,22.0212
2023-05-05T11:17:04.681Z,21.9431
2023-05-05T11:18:07.376Z,22.1041
2023-05-05T11:19:05.063Z,22.1042
2023-05-05T11:20:05.121Z,22.2500
2023-05-05T11:21:05.481Z,21.9181
2023-05-05T11:22:05.689Z,22.1196
2023-05-05T11:23:05.886Z,22.2056
2023-05-05T11:24:06.056Z,22.4887
2023-05-05T11:25:07.249Z,22.4736
2023-05-05T11:26:07.502Z,22.5936
2023-05-05T11:27:08.921Z,22.6854
2023-05-05T11:28:09.107Z,22.4714
2023-05-05T11:29:09.272Z,22.5270
2023-05-05T11:30:10.520Z,22.7447
2023-05-05T11:31:10.709Z,22.8986
2023-05-05T11:32:11.010Z,22.9662
2023-05-05T11:33:11.141Z,22.8612
2023-05-05T11:34:12.378Z,22.9159
2023-05-05T11:35:12.497Z,23.1060
2023-05-05T11:36:13.950Z,23.4542
2023-05-05T11:37:15.285Z,23.3112
2023-05-05T11:38:15.478Z,23.5500
2023-05-05T11:39:16.763Z,23.4900
2023-05-05T11:40:17.019Z,23.4874
2023-05-05T11:41:17.071Z,23.3328
2023-05-05T11:42:18.305Z,23.4114
2023-05-05T11:43:18.530Z,23.5170
2023-05-05T11:44:18.570Z,23.5567
2023-05-05T11:45:18.693Z,23.7998
2023-05-05T11:46:19.104Z,23.7855
2023-05-05T11:47:19.596Z,24.1372
2023-05-05T11:48:20.080Z,24.1738
2023-05-05T11:49:20.637Z,24.2438
2023-05-05T11:50:20.590Z,24.2827
2023-05-05T11:51:20.714Z,24.0945
2023-05-05T11:52:20.765Z,23.8643
2023-05-05T11:53:21.050Z,23.8281
2023-05-05T11:54:21.285Z,23.5571
2023-05-05T11:55:21.369Z,23.5016
2023-05-05T11:56:22.810Z,23.4338
2023-05-05T11:57:22.895Z,23.8113
2023-05-05T11:58:23.136Z,23.6173
2023-05-05T11:59:24.423Z,23.0669
2023-05-05T12:00:24.621Z,23.1524
2023-05-05T12:01:25.915Z,22.9291
2023-05-05T12:02:26.332Z,23.1029
2023-05-05T12:03:28.138Z,22.5046
2023-05-05T12:04:28.533Z,22.8653
2023-05-05T12:05:28.916Z,22.9341
2023-05-05T12:06:29.233Z,23.0273
2023-05-05T12:07:29.370Z,23.3811
2023-05-05T12:08:29.402Z,23.2036
2023-05-05T12:09:29.503Z,23.3754
2023-05-05T12:10:30.642Z,23.5378
2023-05-05T12:11:31.966Z,23.3964
2023-05-05T12:12:32.337Z,23.9728
2023-05-05T12:13:33.246Z,23.8899
2023-05-05T12:14:34.464Z,24.1210
2023-05-05T12:15:34.676Z,24.2646
2023-05-05T12:16:34.882Z,24.2842
2023-05-05T12:17:35.533Z,24.2567
2023-05-05T12:18:36.222Z,24.3595
2023-05-05T12:19:36.337Z,24.4156
2023-05-05T12:20:37.680Z,23.8987
2023-05-05T12:21:37.860Z,24.0871
2023-05-05T12:22:38.058Z,24.3660
2023-05-05T12:23:38.616Z,23.9785
2023-05-05T12:24:38.630Z,24.1025
2023-05-05T12:25:38.864Z,24.0048
2023-05-05T12:26:38.876Z,24.0638
2023-05-05T12:27:39.285Z,24.5288
2023-05-05T12:28:39.356Z,24.9394
2023-05-05T12:29:39.623Z,24.7506
2023-05-05T12:30:40.655Z,24.6058
2023-05-05T12:31:41.095Z,24.9256
2023-05-05T12:32:41.716Z,24.7286
2023-05-05T12:33:41.942Z,25.0030
2023-05-05T12:34:42.107Z,25.3280
2023-05-05T12:35:42.100Z,25.1418
2023-05-05T12:36:42.685Z,25.5814
2023-05-05T12:37:43.914Z,25.5572
2023-05-05T12:38:44.154Z,25.6684
2023-05-05T12:39:45.634Z,25.6760
2023-05-05T12:40:46.407Z,24.8818
2023-05-05T12:41:46.537Z,24.9638
2023-05-05T12:42:46.627Z,25.1966
2023-05-05T12:43:46.822Z,25.3252
2023-05-05T12:44:46.800Z,25.2854
2023-05-05T12:45:47.135Z,25.3358
2023-05-05T12:46:47.617Z,25.6016
2023-05-05T12:47:48.059Z,25.5737
2023-05-05T12:48:48.601Z,25.9405
2023-05-05T12:49:48.941Z,25.9852
2023-05-05T12:50:50.450Z,26.0531
2023-05-05T12:51:50.516Z,26.2622
2023-05-05T12:52:50.724Z,26.0034
2023-05-05T12:53:51.753Z,25.7680
2023-05-05T12:54:52.953Z,25.9815
2023-05-05T12:55:53.277Z,26.0219
2023-05-05T12:56:53.482Z,25.8529
2023-05-05T12:57:53.666Z,25.9786
2023-05-05T12:58:53.864Z,25.5246
2023-05-05T12:59:55.174Z,25.5955
2023-05-05T13:00:55.739Z,25.4402
2023-05-05T13:01:56.202Z,25.3877